Historyczne dane pomiarowe

Dodano dane terminowe – wersja testowa.

Dane z okresu 1951-2019

Wersja bazy: 1.34 [2019-03-16, lista zmian], aktualizacja planowana na 2019-04-15

Dane meteo z obszaru Polski uzyskane na podstawie danych udostępnionych przez Instytut Meteorologii i Gospodarki Wodnej – Państwowy Instytut Badawczy.

 

Wybierz Datę:    

       

TemperaturaWilgotnośćWiatrCiśnienieOpadyŚniegCzas trwania zjawisk
 Stacja t tx tn tng RH VA  wxwx mslp ppp RRR   cm mm wxwxwxwxwxwxwx
1987-07-08 21.3 27.1 13.5 9.0-- 2.7 3.3---- 2.2------------
1987-07-07 19.2 26.6 8.1 5.0-- 0.0 1.7---- 0.0------------
1987-07-06 18.5 24.0 9.0 6.0-- 1.0 1.7---- 0.0------------
1987-07-05 15.6 19.8 10.3 8.0-- 6.0 4.0---- 0.0------------
1987-07-04 18.7 23.4 11.8 9.5-- 3.7 4.0---- 0.0------------
1987-07-03 18.4 22.0 14.2 12.5-- 8.0 1.0---- 0.0------------
1987-07-02 18.0 24.6 16.8 16.5-- 7.3 2.7---- 0.0------------
1987-07-01 24.1 29.1 18.9 5.2-- 0.3 3.3---- 0.0------------
1987-06-30 23.2 29.1 14.7 13.0-- 0.0 2.0---- 0.0------------
1987-06-29 21.2 29.1 16.4 14.2-- 2.7 1.3---- 0.0------------
1987-06-28 18.0 24.0 9.5 8.0-- 6.3 3.0---- 0.0------------
1987-06-27 16.7 20.4 14.2 12.5-- 8.0 2.7---- 0.6------------
1987-06-26 17.0 23.5 9.1 6.5-- 7.0 3.7---- 9.8------------
1987-06-25 14.2 17.0 12.6 11.5-- 6.0 4.0---- 0.0------------
1987-06-24 15.6 20.5 11.6 9.5-- 7.0 5.0---- 3.1------------
1987-06-23 15.3 20.0 11.6 12.0-- 7.7 1.3---- 0.4------------
1987-06-22 14.5 18.2 11.8 11.0-- 8.0 7.3---- 0.0------------
1987-06-21 15.9 23.0 8.8 6.2-- 5.7 1.0---- 0.3------------
1987-06-20 15.1 21.0 8.9 5.5-- 6.7 2.0---- 0.0------------
1987-06-19 12.6 17.6 6.6 5.0-- 5.0 3.3---- 0.0------------
1987-06-18 10.3 14.0 7.0 4.8-- 7.0 7.0---- 0.3------------
1987-06-17 11.7 15.4 8.4 7.0-- 4.3 4.0---- 0.0------------
1987-06-16 13.3 23.0 9.5 10.2-- 6.3 7.0---- 4.0------------
1987-06-15 20.8 28.6 15.6 12.5-- 6.7 5.7---- 17.0------------
1987-06-14 21.4 26.3 16.6 11.8-- 6.0 2.0---- 2.6------------
1987-06-13 20.2 26.3 13.3 10.5-- 4.0 2.3---- 0.0------------
1987-06-12 19.4 26.6 9.5 6.6-- 6.3 2.3---- 0.0------------
1987-06-11 16.0 21.8 8.1 7.2-- 3.7 0.7---- 0.0------------
1987-06-10 14.2 19.0 11.2 11.0-- 5.0 1.7---- 0.0------------
1987-06-09 13.2 15.4 10.5 11.0-- 8.0 1.7---- 4.2------------
1987-06-08 17.8 25.5 13.5 13.0-- 6.7 5.7---- 13.7------------
1987-06-07 18.6 24.0 12.6 8.0-- 6.3 3.0---- 10.8------------
1987-06-06 15.4 20.0 9.5 7.0-- 4.0 2.3---- 0.0------------
1987-06-05 12.9 14.6 11.2 11.6-- 7.7 6.3---- 6.0------------
1987-06-04 14.8 18.6 11.6 10.2-- 7.7 4.0---- 31.2------------
1987-06-03 11.0 14.0 6.6 3.8-- 8.0 1.0---- 2.1------------
1987-06-02 10.4 14.4 7.1 5.2-- 6.3 4.7---- 0.9------------
1987-06-01 10.8 16.4 3.3 0.2-- 7.3 1.7---- 3.0------------
1987-05-31 9.4 12.5 4.7 1.4-- 7.7 0.3---- 0.0------------
1987-05-30 8.5 14.5 7.4 4.8-- 8.0 2.0---- 4.0------------
1987-05-29 10.9 15.2 4.1 0.4-- 3.3 1.3---- 0.0------------
1987-05-28 12.9 19.0 10.5 5.0-- 6.7 2.7---- 17.3------------
1987-05-27 13.7 21.5 3.9 0.2-- 2.3 1.7---- 0.0------------
1987-05-26 12.3 18.5 6.0 -0.5-- 1.0 2.0---- 0.0------------
1987-05-25 10.9 16.0 4.2 0.5-- 3.7 2.3---- 0.0------------
1987-05-24 10.7 15.2 8.1 7.6-- 7.3 3.3---- 0.0------------
1987-05-23 10.5 12.4 9.0 9.0-- 8.0 4.7---- 0.0------------
1987-05-22 7.3 9.4 5.7 6.0-- 8.0 5.3---- 3.5------------
1987-05-21 8.2 10.6 6.2 5.8-- 8.0 3.0---- 16.7------------
1987-05-20 10.3 14.2 7.1 3.8-- 8.0 1.7---- 9.8------------
1987-05-19 14.0 17.4 10.5 5.5-- 6.3 2.7---- 0.0------------
1987-05-18 11.5 17.4 5.7 2.5-- 8.0 3.7---- 2.7------------
1987-05-17 10.6 15.4 5.7 4.6-- 3.0 5.0---- 3.8------------
1987-05-16 11.1 13.2 8.6 5.6-- 8.0 1.7---- 4.1------------
1987-05-15 9.4 15.8 2.3 -0.8-- 3.7 5.7---- 0.0------------
1987-05-14 6.4 10.0 5.9 4.5-- 8.0 1.7---- 7.6------------
1987-05-13 11.1 15.4 9.5 7.0-- 8.0 3.3---- 22.6------------
1987-05-12 11.6 18.2 3.0 -1.0-- 5.7 7.7---- 0.2------------
1987-05-11 10.0 20.0 6.6 5.0-- 7.0 5.3---- 0.0------------
1987-05-10 15.1 22.6 5.2 -1.0-- 4.0 6.7---- 4.5------------
407.8 ms

 

Źródłem pochodzenia danych jest Instytut Meteorologii i Gospodarki Wodnej – Państwowy Instytut Badawczy. Dane Instytutu Meteorologii i Gospodarki Wodnej – Państwowego Instytutu Badawczego zostały przetworzone.

Dane źródłowe można odnaleźć na stronie https://dane.imgw.pl